Time,TemperatureF,DewpointF,PressureIn,WindDirection,WindDirectionDegrees,WindSpeedMPH,WindSpeedGustMPH,Humidity,HourlyPrecipIn,Conditions,Clouds,dailyrainin,SoftwareType,DateUTC
2013-08-01 00:00:00,66.9,65.7,29.95,SE,142,0.0,9.0,96,0.00,,,0.00,Wunderground v.1.15,2013-08-01 04:00:00,
2013-08-01 00:05:00,66.9,65.7,29.96,East,96,0.0,9.0,96,0.00,,,0.00,Wunderground v.1.15,2013-08-01 04:05:00,
2013-08-01 00:10:00,66.9,65.7,29.95,SE,129,0.0,9.0,96,0.00,,,0.00,Wunderground v.1.15,2013-08-01 04:10:00,
2013-08-01 00:15:00,66.9,65.7,29.95,SE,129,0.0,9.0,96,0.00,,,0.00,Wunderground v.1.15,2013-08-01 04:15:00,
2013-08-01 00:20:00,67.0,65.8,29.96,ESE,116,0.0,9.0,96,0.00,,,0.00,Wunderground v.1.15,2013-08-01 04:20:00,
2013-08-01 00:25:00,67.0,65.8,29.95,ESE,116,0.0,9.0,96,0.00,,,0.00,Wunderground v.1.15,2013-08-01 04:25:00,
2013-08-01 00:30:00,66.9,65.7,29.96,ESE,116,0.0,9.0,96,0.00,,,0.00,Wunderground v.1.15,2013-08-01 04:30:00,
2013-08-01 00:35:00,67.0,65.8,29.95,East,92,0.0,9.0,96,0.00,,,0.00,Wunderground v.1.15,2013-08-01 04:35:00,
2013-08-01 00:45:00,67.0,65.8,29.95,ENE,65,1.0,9.0,96,0.00,,,0.00,Wunderground v.1.15,2013-08-01 04:45:00,
2013-08-01 00:50:00,67.0,65.8,29.95,SSE,148,0.0,9.0,96,0.00,,,0.00,Wunderground v.1.15,2013-08-01 04:50:00,
2013-08-01 00:55:00,67.0,65.8,29.95,ESE,103,0.0,9.0,96,0.00,,,0.00,Wunderground v.1.15,2013-08-01 04:55:00,
2013-08-01 01:00:00,67.1,65.9,29.95,ESE,107,0.0,9.0,96,0.00,,,0.00,Wunderground v.1.15,2013-08-01 05:00:00,
2013-08-01 07:05:00,65.7,65.1,29.90,SSE,157,0.0,9.0,98,0.00,,,0.00,Wunderground v.1.15,2013-08-01 11:05:00,
2013-08-01 07:15:00,65.6,65.0,29.90,SSE,156,0.0,9.0,98,0.00,,,0.00,Wunderground v.1.15,2013-08-01 11:15:00,
2013-08-01 07:20:00,65.6,65.0,29.90,SSE,156,0.0,9.0,98,0.00,,,0.00,Wunderground v.1.15,2013-08-01 11:20:00,
2013-08-01 07:30:00,65.6,65.0,29.90,SSE,157,0.0,9.0,98,0.00,,,0.00,Wunderground v.1.15,2013-08-01 11:30:00,
2013-08-01 07:35:00,65.7,65.1,29.90,SSE,157,0.0,9.0,98,0.00,,,0.00,Wunderground v.1.15,2013-08-01 11:35:00,
2013-08-01 07:40:00,65.7,65.1,29.90,SSE,157,0.0,9.0,98,0.00,,,0.00,Wunderground v.1.15,2013-08-01 11:40:00,
2013-08-01 07:50:00,65.8,65.2,29.90,SSE,156,0.0,9.0,98,0.00,,,0.00,Wunderground v.1.15,2013-08-01 11:50:00,
2013-08-01 08:00:00,65.9,65.3,29.91,SSE,157,0.0,9.0,98,0.00,,,0.00,Wunderground v.1.15,2013-08-01 12:00:00,
2013-08-01 08:05:00,66.0,65.4,29.90,SSE,163,0.0,9.0,98,0.00,,,0.00,Wunderground v.1.15,2013-08-01 12:05:00,
2013-08-01 08:10:00,66.0,65.4,29.90,SSE,163,0.0,9.0,98,0.00,,,0.00,Wunderground v.1.15,2013-08-01 12:10:00,
2013-08-01 08:15:00,66.2,65.6,29.90,SSE,163,0.0,9.0,98,0.00,,,0.00,Wunderground v.1.15,2013-08-01 12:15:00,
2013-08-01 08:35:00,66.5,65.9,29.91,SSE,163,0.0,9.0,98,0.00,,,0.00,Wunderground v.1.15,2013-08-01 12:35:00,
2013-08-01 08:40:00,66.6,66.0,29.91,South,172,0.0,9.0,98,0.00,,,0.00,Wunderground v.1.15,2013-08-01 12:40:00,
2013-08-01 08:50:00,66.7,66.1,29.91,South,172,0.0,9.0,98,0.00,,,0.00,Wunderground v.1.15,2013-08-01 12:50:00,
2013-08-01 09:00:00,66.8,66.2,29.91,SW,217,0.0,9.0,98,0.00,,,0.00,Wunderground v.1.15,2013-08-01 13:00:00,
2013-08-01 09:05:00,66.9,66.3,29.92,SSW,207,0.0,9.0,98,0.00,,,0.00,Wunderground v.1.15,2013-08-01 13:05:00,
2013-08-01 09:15:00,67.0,66.4,29.92,SE,131,0.0,9.0,98,0.00,,,0.00,Wunderground v.1.15,2013-08-01 13:15:00,
2013-08-01 09:20:00,67.0,66.4,29.92,SE,141,0.0,9.0,98,0.00,,,0.00,Wunderground v.1.15,2013-08-01 13:20:00,
2013-08-01 09:35:00,67.3,66.4,29.91,SE,139,0.0,9.0,97,0.00,,,0.00,Wunderground v.1.15,2013-08-01 13:35:00,
2013-08-01 09:40:00,67.4,66.5,29.91,SE,139,0.0,9.0,97,0.00,,,0.00,Wunderground v.1.15,2013-08-01 13:40:00,
2013-08-01 09:50:00,67.8,66.9,29.91,SSE,152,0.0,9.0,97,0.00,,,0.00,Wunderground v.1.15,2013-08-01 13:50:00,
2013-08-01 09:55:00,67.9,67.0,29.91,SSE,152,0.0,9.0,97,0.00,,,0.00,Wunderground v.1.15,2013-08-01 13:55:00,
2013-08-01 10:15:00,68.7,67.5,29.92,SSE,150,0.0,9.0,96,0.00,,,0.00,Wunderground v.1.15,2013-08-01 14:15:00,
2013-08-01 10:25:00,69.5,68.3,29.92,SE,127,0.0,9.0,96,0.00,,,0.00,Wunderground v.1.15,2013-08-01 14:25:00,
2013-08-01 10:30:00,69.8,68.3,29.91,ESE,102,0.0,9.0,95,0.00,,,0.00,Wunderground v.1.15,2013-08-01 14:30:00,
2013-08-01 10:35:00,70.2,68.7,29.92,ENE,60,0.0,9.0,95,0.00,,,0.00,Wunderground v.1.15,2013-08-01 14:35:00,
2013-08-01 10:40:00,70.6,68.5,29.92,SW,225,0.0,9.0,93,0.00,,,0.00,Wunderground v.1.15,2013-08-01 14:40:00,
2013-08-01 10:45:00,71.2,68.8,29.92,SW,224,0.0,9.0,92,0.00,,,0.00,Wunderground v.1.15,2013-08-01 14:45:00,
2013-08-01 10:50:00,72.2,69.4,29.92,SSE,158,0.0,9.0,91,0.00,,,0.00,Wunderground v.1.15,2013-08-01 14:50:00,
2013-08-01 11:00:00,73.8,70.0,29.91,SSE,156,0.0,9.0,88,0.00,,,0.00,Wunderground v.1.15,2013-08-01 15:00:00,
2013-08-01 11:05:00,73.9,69.4,29.91,SW,231,0.0,9.0,86,0.00,,,0.00,Wunderground v.1.15,2013-08-01 15:05:00,
2013-08-01 11:15:00,74.0,69.9,29.91,South,190,0.0,9.0,87,0.00,,,0.00,Wunderground v.1.15,2013-08-01 15:15:00,
2013-08-01 11:20:00,74.4,69.2,29.91,WNW,285,0.0,9.0,84,0.00,,,0.00,Wunderground v.1.15,2013-08-01 15:20:00,
2013-08-01 11:25:00,74.9,70.4,29.91,West,267,1.0,9.0,86,0.00,,,0.00,Wunderground v.1.15,2013-08-01 15:25:00,
2013-08-01 11:40:00,75.9,70.0,29.91,SW,226,1.0,9.0,82,0.00,,,0.00,Wunderground v.1.15,2013-08-01 15:40:00,
2013-08-01 11:45:00,75.9,69.6,29.91,SW,232,1.0,9.0,81,0.00,,,0.00,Wunderground v.1.15,2013-08-01 15:45:00,
2013-08-01 11:55:00,75.7,70.2,29.91,South,173,0.0,9.0,83,0.00,,,0.00,Wunderground v.1.15,2013-08-01 15:55:00,
2013-08-01 12:10:00,76.3,69.7,29.90,South,174,1.0,1.0,80,0.00,,,0.00,Wunderground v.1.15,2013-08-01 16:10:00,
2013-08-01 12:20:00,76.4,70.1,29.90,SE,133,1.0,9.0,81,0.00,,,0.00,Wunderground v.1.15,2013-08-01 16:20:00,
2013-08-01 12:25:00,76.2,69.9,29.90,SSE,159,1.0,9.0,81,0.00,,,0.00,Wunderground v.1.15,2013-08-01 16:25:00,
2013-08-01 12:30:00,75.8,69.6,29.90,WSW,239,0.0,9.0,81,0.00,,,0.00,Wunderground v.1.15,2013-08-01 16:30:00,
2013-08-01 12:35:00,75.8,69.9,29.90,SSE,153,1.0,9.0,82,0.00,,,0.00,Wunderground v.1.15,2013-08-01 16:35:00,
2013-08-01 12:40:00,75.4,69.5,29.91,SSE,166,1.0,1.0,82,0.00,,,0.00,Wunderground v.1.15,2013-08-01 16:40:00,
2013-08-01 12:45:00,74.7,68.8,29.91,SSW,213,0.0,9.0,82,0.00,,,0.00,Wunderground v.1.15,2013-08-01 16:45:00,
2013-08-01 12:50:00,74.1,68.6,29.90,SSW,212,0.0,9.0,83,0.00,,,0.00,Wunderground v.1.15,2013-08-01 16:50:00,
2013-08-01 13:15:00,70.9,66.8,29.91,WSW,245,0.0,9.0,87,0.00,,,0.00,Wunderground v.1.15,2013-08-01 17:15:00,
2013-08-01 13:20:00,70.3,66.9,29.90,WSW,245,0.0,9.0,89,0.00,,,0.00,Wunderground v.1.15,2013-08-01 17:20:00,
2013-08-01 13:30:00,70.3,67.5,29.90,SSW,208,0.0,9.0,91,0.00,,,0.00,Wunderground v.1.15,2013-08-01 17:30:00,
2013-08-01 13:35:00,71.0,68.6,29.90,SE,137,0.0,9.0,92,0.00,,,0.00,Wunderground v.1.15,2013-08-01 17:35:00,
2013-08-01 13:40:00,72.0,69.5,29.89,SSE,160,1.0,9.0,92,0.00,,,0.00,Wunderground v.1.15,2013-08-01 17:40:00,
2013-08-01 13:45:00,72.9,70.1,29.89,SW,219,1.0,9.0,91,0.00,,,0.00,Wunderground v.1.15,2013-08-01 17:45:00,
2013-08-01 13:50:00,73.7,69.6,29.89,SSW,211,1.0,1.0,87,0.00,,,0.00,Wunderground v.1.15,2013-08-01 17:50:00,
2013-08-01 13:55:00,74.1,69.3,29.88,South,188,1.0,9.0,85,0.00,,,0.00,Wunderground v.1.15,2013-08-01 17:55:00,
2013-08-01 14:05:00,74.7,70.2,29.89,SW,235,1.0,9.0,86,0.00,,,0.00,Wunderground v.1.15,2013-08-01 18:05:00,
2013-08-01 14:10:00,75.2,70.4,29.89,SSE,153,1.0,9.0,85,0.00,,,0.00,Wunderground v.1.15,2013-08-01 18:10:00,
2013-08-01 14:15:00,75.2,69.3,29.89,ESE,112,1.0,9.0,82,0.00,,,0.00,Wunderground v.1.15,2013-08-01 18:15:00,
2013-08-01 14:20:00,75.3,69.8,29.89,SE,141,1.0,1.0,83,0.00,,,0.00,Wunderground v.1.15,2013-08-01 18:20:00,
2013-08-01 14:25:00,75.6,69.7,29.89,South,183,0.0,9.0,82,0.00,,,0.00,Wunderground v.1.15,2013-08-01 18:25:00,
2013-08-01 14:30:00,75.3,69.4,29.89,WSW,245,0.0,9.0,82,0.00,,,0.00,Wunderground v.1.15,2013-08-01 18:30:00,
2013-08-01 14:35:00,74.8,69.3,29.89,WSW,245,0.0,9.0,83,0.00,,,0.00,Wunderground v.1.15,2013-08-01 18:35:00,
2013-08-01 14:45:00,74.0,69.2,29.88,SE,125,0.0,1.0,85,0.00,,,0.00,Wunderground v.1.15,2013-08-01 18:45:00,
2013-08-01 14:50:00,74.3,69.8,29.88,SSW,208,1.0,1.0,86,0.00,,,0.00,Wunderground v.1.15,2013-08-01 18:50:00,
2013-08-01 14:55:00,75.1,70.6,29.88,SSE,160,1.0,1.0,86,0.00,,,0.00,Wunderground v.1.15,2013-08-01 18:55:00,
2013-08-01 15:00:00,76.2,71.4,29.88,SW,215,1.0,1.0,85,0.00,,,0.00,Wunderground v.1.15,2013-08-01 19:00:00,
2013-08-01 15:05:00,77.0,71.4,29.88,WSW,249,1.0,2.0,83,0.00,,,0.00,Wunderground v.1.15,2013-08-01 19:05:00,
2013-08-01 15:10:00,77.2,70.9,29.88,WSW,248,1.0,1.0,81,0.00,,,0.00,Wunderground v.1.15,2013-08-01 19:10:00,
2013-08-01 15:15:00,77.4,71.1,29.87,SW,224,1.0,1.0,81,0.00,,,0.00,Wunderground v.1.15,2013-08-01 19:15:00,
2013-08-01 15:20:00,77.3,70.6,29.87,West,259,1.0,2.0,80,0.00,,,0.00,Wunderground v.1.15,2013-08-01 19:20:00,
2013-08-01 15:25:00,76.7,70.4,29.87,West,259,1.0,2.0,81,0.00,,,0.00,Wunderground v.1.15,2013-08-01 19:25:00,
2013-08-01 15:35:00,75.8,69.9,29.87,SW,235,1.0,4.0,82,0.00,,,0.00,Wunderground v.1.15,2013-08-01 19:35:00,
2013-08-01 15:45:00,75.7,69.8,29.86,WSW,248,1.0,4.0,82,0.00,,,0.00,Wunderground v.1.15,2013-08-01 19:45:00,
2013-08-01 15:50:00,76.1,70.6,29.86,SW,234,1.0,4.0,83,0.00,,,0.00,Wunderground v.1.15,2013-08-01 19:50:00,
2013-08-01 15:55:00,76.3,69.7,29.86,SW,235,1.0,4.0,80,0.00,,,0.00,Wunderground v.1.15,2013-08-01 19:55:00,
2013-08-01 16:00:00,76.5,69.5,29.86,WSW,240,1.0,4.0,79,0.00,,,0.00,Wunderground v.1.15,2013-08-01 20:00:00,
2013-08-01 16:05:00,76.7,68.9,29.86,WSW,247,1.0,4.0,77,0.00,,,0.00,Wunderground v.1.15,2013-08-01 20:05:00,
2013-08-01 16:10:00,76.8,68.7,29.86,SSE,163,1.0,1.0,76,0.00,,,0.00,Wunderground v.1.15,2013-08-01 20:10:00,
2013-08-01 16:20:00,76.8,68.7,29.86,SW,235,1.0,1.0,76,0.00,,,0.00,Wunderground v.1.15,2013-08-01 20:20:00,
2013-08-01 16:30:00,77.1,68.9,29.86,WSW,245,1.0,4.0,76,0.00,,,0.00,Wunderground v.1.15,2013-08-01 20:30:00,
2013-08-01 16:35:00,77.1,69.3,29.86,SW,221,1.0,4.0,77,0.00,,,0.00,Wunderground v.1.15,2013-08-01 20:35:00,
2013-08-01 16:45:00,77.4,70.0,29.86,WSW,249,1.0,4.0,78,0.00,,,0.00,Wunderground v.1.15,2013-08-01 20:45:00,
2013-08-01 16:50:00,77.2,69.8,29.86,WSW,243,1.0,4.0,78,0.00,,,0.00,Wunderground v.1.15,2013-08-01 20:50:00,
2013-08-01 16:55:00,77.1,69.7,29.86,West,276,1.0,4.0,78,0.00,,,0.00,Wunderground v.1.15,2013-08-01 20:55:00,
2013-08-01 17:00:00,77.3,69.9,29.86,West,269,1.0,1.0,78,0.00,,,0.00,Wunderground v.1.15,2013-08-01 21:00:00,
2013-08-01 17:10:00,77.4,68.1,29.86,SW,233,1.0,4.0,73,0.00,,,0.00,Wunderground v.1.15,2013-08-01 21:10:00,
2013-08-01 17:15:00,77.0,67.7,29.86,WSW,240,1.0,4.0,73,0.00,,,0.00,Wunderground v.1.15,2013-08-01 21:15:00,
2013-08-01 17:20:00,76.8,67.5,29.86,WSW,249,1.0,1.0,73,0.00,,,0.00,Wunderground v.1.15,2013-08-01 21:20:00,
2013-08-01 17:30:00,76.2,68.1,29.86,ESE,113,1.0,4.0,76,0.00,,,0.00,Wunderground v.1.15,2013-08-01 21:30:00,
2013-08-01 17:45:00,75.8,68.4,29.86,WSW,242,0.0,4.0,78,0.00,,,0.00,Wunderground v.1.15,2013-08-01 21:45:00,
2013-08-01 17:50:00,75.2,68.2,29.86,SSE,148,0.0,4.0,79,0.00,,,0.00,Wunderground v.1.15,2013-08-01 21:50:00,
2013-08-01 17:55:00,74.6,68.0,29.86,SSW,208,0.0,4.0,80,0.00,,,0.00,Wunderground v.1.15,2013-08-01 21:55:00,
2013-08-01 18:00:00,74.0,68.2,29.86,WSW,255,0.0,4.0,82,0.00,,,0.00,Wunderground v.1.15,2013-08-01 22:00:00,
2013-08-01 18:05:00,73.4,67.6,29.86,SE,133,1.0,4.0,82,0.00,,,0.00,Wunderground v.1.15,2013-08-01 22:05:00,
2013-08-01 18:10:00,73.1,67.3,29.86,West,260,0.0,4.0,82,0.00,,,0.00,Wunderground v.1.15,2013-08-01 22:10:00,
2013-08-01 18:15:00,72.8,67.0,29.86,SW,218,0.0,4.0,82,0.00,,,0.00,Wunderground v.1.15,2013-08-01 22:15:00,
2013-08-01 18:20:00,72.6,67.1,29.86,West,276,1.0,1.0,83,0.00,,,0.00,Wunderground v.1.15,2013-08-01 22:20:00,
2013-08-01 18:30:00,72.0,66.9,29.86,WSW,248,0.0,4.0,84,0.00,,,0.00,Wunderground v.1.15,2013-08-01 22:30:00,
2013-08-01 18:35:00,71.9,67.1,29.86,West,266,0.0,4.0,85,0.00,,,0.00,Wunderground v.1.15,2013-08-01 22:35:00,
2013-08-01 18:40:00,71.4,66.7,29.87,West,271,0.0,4.0,85,0.00,,,0.00,Wunderground v.1.15,2013-08-01 22:40:00,
2013-08-01 18:50:00,71.1,66.0,29.87,WSW,246,0.0,4.0,84,0.00,,,0.00,Wunderground v.1.15,2013-08-01 22:50:00,
2013-08-01 18:55:00,71.0,66.3,29.87,West,270,1.0,4.0,85,0.00,,,0.00,Wunderground v.1.15,2013-08-01 22:55:00,
2013-08-01 19:05:00,70.7,66.3,29.87,West,276,0.0,4.0,86,0.00,,,0.00,Wunderground v.1.15,2013-08-01 23:05:00,
2013-08-01 19:10:00,70.6,65.9,29.87,West,278,1.0,1.0,85,0.00,,,0.00,Wunderground v.1.15,2013-08-01 23:10:00,
2013-08-01 19:15:00,70.5,66.4,29.87,West,270,1.0,4.0,87,0.00,,,0.00,Wunderground v.1.15,2013-08-01 23:15:00,
2013-08-01 19:20:00,70.2,66.1,29.87,West,270,0.0,4.0,87,0.00,,,0.00,Wunderground v.1.15,2013-08-01 23:20:00,
2013-08-01 19:25:00,70.0,66.3,29.87,West,270,0.0,4.0,88,0.00,,,0.00,Wunderground v.1.15,2013-08-01 23:25:00,
2013-08-01 19:30:00,69.7,66.0,29.88,West,270,0.0,4.0,88,0.00,,,0.00,Wunderground v.1.15,2013-08-01 23:30:00,
2013-08-01 19:35:00,69.6,66.2,29.88,West,270,0.0,4.0,89,0.00,,,0.00,Wunderground v.1.15,2013-08-01 23:35:00,
2013-08-01 19:40:00,69.4,66.0,29.87,SE,133,0.0,4.0,89,0.00,,,0.00,Wunderground v.1.15,2013-08-01 23:40:00,
2013-08-01 19:45:00,69.2,66.1,29.88,SE,133,0.0,4.0,90,0.00,,,0.00,Wunderground v.1.15,2013-08-01 23:45:00,
2013-08-01 19:50:00,69.0,65.9,29.88,SE,132,0.0,4.0,90,0.00,,,0.00,Wunderground v.1.15,2013-08-01 23:50:00,
2013-08-01 19:55:00,68.8,65.7,29.88,SE,133,0.0,4.0,90,0.00,,,0.00,Wunderground v.1.15,2013-08-01 23:55:00,
2013-08-01 20:00:00,68.5,65.4,29.88,SE,133,0.0,4.0,90,0.00,,,0.00,Wunderground v.1.15,2013-08-02 00:00:00,
2013-08-01 20:05:00,68.3,64.9,29.89,SE,129,0.0,4.0,89,0.00,,,0.00,Wunderground v.1.15,2013-08-02 00:05:00,
2013-08-01 20:10:00,68.1,65.1,29.89,SE,129,0.0,4.0,90,0.00,,,0.00,Wunderground v.1.15,2013-08-02 00:10:00,
2013-08-01 20:15:00,68.0,64.6,29.90,SE,129,0.0,4.0,89,0.00,,,0.00,Wunderground v.1.15,2013-08-02 00:15:00,
2013-08-01 20:20:00,67.9,64.9,29.90,SE,130,0.0,4.0,90,0.00,,,0.00,Wunderground v.1.15,2013-08-02 00:20:00,
2013-08-01 20:25:00,67.9,64.9,29.90,SE,130,0.0,4.0,90,0.00,,,0.00,Wunderground v.1.15,2013-08-02 00:25:00,
2013-08-01 20:35:00,67.7,65.0,29.90,SE,129,0.0,4.0,91,0.00,,,0.00,Wunderground v.1.15,2013-08-02 00:35:00,
2013-08-01 20:40:00,67.5,64.8,29.91,SE,129,0.0,4.0,91,0.00,,,0.00,Wunderground v.1.15,2013-08-02 00:40:00,
2013-08-01 20:45:00,67.3,64.9,29.91,SE,130,0.0,4.0,92,0.00,,,0.00,Wunderground v.1.15,2013-08-02 00:45:00,
2013-08-01 20:50:00,67.1,64.7,29.91,SE,130,0.0,4.0,92,0.00,,,0.00,Wunderground v.1.15,2013-08-02 00:50:00,
2013-08-01 20:55:00,66.8,64.4,29.91,SE,129,0.0,4.0,92,0.00,,,0.00,Wunderground v.1.15,2013-08-02 00:55:00,
2013-08-01 21:05:00,66.6,64.2,29.92,SE,129,0.0,4.0,92,0.00,,,0.00,Wunderground v.1.15,2013-08-02 01:05:00,
2013-08-01 21:10:00,66.5,64.1,29.91,SE,129,0.0,4.0,92,0.00,,,0.00,Wunderground v.1.15,2013-08-02 01:10:00,
2013-08-01 21:15:00,66.5,64.1,29.92,SE,129,0.0,4.0,92,0.00,,,0.00,Wunderground v.1.15,2013-08-02 01:15:00,
2013-08-01 21:20:00,66.4,64.0,29.92,SE,129,0.0,4.0,92,0.00,,,0.00,Wunderground v.1.15,2013-08-02 01:20:00,
2013-08-01 21:25:00,66.6,64.2,29.92,SE,130,0.0,4.0,92,0.00,,,0.00,Wunderground v.1.15,2013-08-02 01:25:00,
2013-08-01 21:35:00,66.7,64.3,29.92,SE,129,0.0,4.0,92,0.00,,,0.00,Wunderground v.1.15,2013-08-02 01:35:00,
2013-08-01 21:40:00,66.6,64.2,29.92,SE,130,0.0,4.0,92,0.00,,,0.00,Wunderground v.1.15,2013-08-02 01:40:00,
2013-08-01 21:50:00,66.2,64.1,29.92,SE,130,0.0,4.0,93,0.00,,,0.00,Wunderground v.1.15,2013-08-02 01:50:00,
2013-08-01 21:55:00,66.2,64.4,29.92,SE,129,0.0,4.0,94,0.00,,,0.00,Wunderground v.1.15,2013-08-02 01:55:00,
2013-08-01 22:00:00,66.1,64.3,29.92,SE,130,0.0,4.0,94,0.00,,,0.00,Wunderground v.1.15,2013-08-02 02:00:00,
2013-08-01 22:05:00,66.0,64.2,29.93,SE,129,0.0,4.0,94,0.00,,,0.00,Wunderground v.1.15,2013-08-02 02:05:00,
2013-08-01 22:15:00,65.9,64.1,29.92,SE,130,0.0,4.0,94,0.00,,,0.00,Wunderground v.1.15,2013-08-02 02:15:00,
2013-08-01 22:20:00,65.9,64.1,29.92,SE,129,0.0,4.0,94,0.00,,,0.00,Wunderground v.1.15,2013-08-02 02:20:00,
2013-08-01 22:30:00,65.8,64.0,29.92,SE,130,0.0,4.0,94,0.00,,,0.00,Wunderground v.1.15,2013-08-02 02:30:00,
2013-08-01 22:35:00,65.6,63.8,29.92,SE,130,0.0,4.0,94,0.00,,,0.00,Wunderground v.1.15,2013-08-02 02:35:00,
2013-08-01 22:40:00,65.5,63.7,29.92,SE,130,0.0,4.0,94,0.00,,,0.00,Wunderground v.1.15,2013-08-02 02:40:00,
2013-08-01 22:45:00,65.4,63.9,29.92,SE,129,0.0,4.0,95,0.00,,,0.00,Wunderground v.1.15,2013-08-02 02:45:00,
2013-08-01 22:55:00,65.3,63.8,29.92,SE,130,0.0,4.0,95,0.00,,,0.00,Wunderground v.1.15,2013-08-02 02:55:00,
2013-08-01 23:05:00,65.3,63.8,29.92,SW,224,0.0,4.0,95,0.00,,,0.00,Wunderground v.1.15,2013-08-02 03:05:00,
2013-08-01 23:10:00,65.2,63.7,29.92,SW,224,0.0,4.0,95,0.00,,,0.00,Wunderground v.1.15,2013-08-02 03:10:00,
2013-08-01 23:15:00,65.1,63.6,29.92,SW,223,0.0,4.0,95,0.00,,,0.00,Wunderground v.1.15,2013-08-02 03:15:00,
2013-08-01 23:20:00,65.1,63.9,29.92,SW,222,0.0,4.0,96,0.00,,,0.00,Wunderground v.1.15,2013-08-02 03:20:00,
2013-08-01 23:25:00,65.1,63.9,29.93,SW,224,0.0,4.0,96,0.00,,,0.00,Wunderground v.1.15,2013-08-02 03:25:00,
2013-08-01 23:30:00,65.0,63.8,29.93,SW,222,0.0,4.0,96,0.00,,,0.00,Wunderground v.1.15,2013-08-02 03:30:00,
2013-08-01 23:35:00,64.9,63.7,29.93,SW,222,0.0,4.0,96,0.00,,,0.00,Wunderground v.1.15,2013-08-02 03:35:00,
2013-08-01 23:40:00,64.8,63.6,29.93,SW,224,0.0,4.0,96,0.00,,,0.00,Wunderground v.1.15,2013-08-02 03:40:00,
2013-08-01 23:45:00,64.7,63.5,29.93,SW,222,0.0,4.0,96,0.00,,,0.00,Wunderground v.1.15,2013-08-02 03:45:00,
2013-08-01 23:55:00,64.6,63.4,29.93,SW,222,0.0,4.0,96,0.00,,,0.00,Wunderground v.1.15,2013-08-02 03:55:00,